sensor_id;sensor_type;location;lat;lon;timestamp;temperature;humidity
34646;DHT22;20857;47.808;12.482;2023-06-24T00:02:25;15.00;99.90
34646;DHT22;20857;47.808;12.482;2023-06-24T00:04:50;14.90;99.90
34646;DHT22;20857;47.808;12.482;2023-06-24T00:07:17;14.90;99.90
34646;DHT22;20857;47.808;12.482;2023-06-24T00:09:42;14.80;99.90
34646;DHT22;20857;47.808;12.482;2023-06-24T00:12:08;14.80;99.90
34646;DHT22;20857;47.808;12.482;2023-06-24T00:14:33;14.80;99.90
34646;DHT22;20857;47.808;12.482;2023-06-24T00:16:59;14.70;99.90
34646;DHT22;20857;47.808;12.482;2023-06-24T00:19:25;14.80;99.90
34646;DHT22;20857;47.808;12.482;2023-06-24T00:21:51;14.80;99.90
34646;DHT22;20857;47.808;12.482;2023-06-24T00:24:20;14.70;99.90
34646;DHT22;20857;47.808;12.482;2023-06-24T00:26:46;14.80;99.90
34646;DHT22;20857;47.808;12.482;2023-06-24T00:29:12;14.70;99.90
34646;DHT22;20857;47.808;12.482;2023-06-24T00:31:38;14.80;99.90
34646;DHT22;20857;47.808;12.482;2023-06-24T00:34:03;14.80;99.90
34646;DHT22;20857;47.808;12.482;2023-06-24T00:36:29;14.70;99.90
34646;DHT22;20857;47.808;12.482;2023-06-24T00:38:57;14.70;99.90
34646;DHT22;20857;47.808;12.482;2023-06-24T00:41:32;14.80;99.90
34646;DHT22;20857;47.808;12.482;2023-06-24T00:43:58;14.80;99.90
34646;DHT22;20857;47.808;12.482;2023-06-24T00:46:24;14.70;99.90
34646;DHT22;20857;47.808;12.482;2023-06-24T00:48:59;14.70;99.90
34646;DHT22;20857;47.808;12.482;2023-06-24T00:51:27;14.70;99.90
34646;DHT22;20857;47.808;12.482;2023-06-24T00:53:55;14.70;99.90
34646;DHT22;20857;47.808;12.482;2023-06-24T00:56:21;14.70;99.90
34646;DHT22;20857;47.808;12.482;2023-06-24T00:58:47;14.70;99.90
34646;DHT22;20857;47.808;12.482;2023-06-24T01:01:12;14.60;99.90
34646;DHT22;20857;47.808;12.482;2023-06-24T01:03:39;14.70;99.90
34646;DHT22;20857;47.808;12.482;2023-06-24T01:06:05;14.70;99.90
34646;DHT22;20857;47.808;12.482;2023-06-24T01:08:31;14.70;99.90
34646;DHT22;20857;47.808;12.482;2023-06-24T01:10:56;14.70;99.90
34646;DHT22;20857;47.808;12.482;2023-06-24T01:13:22;14.70;99.90
34646;DHT22;20857;47.808;12.482;2023-06-24T01:15:47;14.60;99.90
34646;DHT22;20857;47.808;12.482;2023-06-24T01:18:17;14.60;99.90
34646;DHT22;20857;47.808;12.482;2023-06-24T01:20:52;14.60;99.90
34646;DHT22;20857;47.808;12.482;2023-06-24T01:26:02;14.60;99.90
34646;DHT22;20857;47.808;12.482;2023-06-24T01:28:51;14.50;99.90
34646;DHT22;20857;47.808;12.482;2023-06-24T01:31:32;14.50;99.90
34646;DHT22;20857;47.808;12.482;2023-06-24T01:36:40;14.60;99.90
34646;DHT22;20857;47.808;12.482;2023-06-24T01:39:09;14.60;99.90
34646;DHT22;20857;47.808;12.482;2023-06-24T01:41:44;14.60;99.90
34646;DHT22;20857;47.808;12.482;2023-06-24T01:44:10;14.60;99.90
34646;DHT22;20857;47.808;12.482;2023-06-24T01:46:38;14.70;99.90
34646;DHT22;20857;47.808;12.482;2023-06-24T01:49:04;14.70;99.90
34646;DHT22;20857;47.808;12.482;2023-06-24T01:51:32;14.70;99.90
34646;DHT22;20857;47.808;12.482;2023-06-24T01:54:00;14.70;99.90
34646;DHT22;20857;47.808;12.482;2023-06-24T01:56:27;14.70;99.90
34646;DHT22;20857;47.808;12.482;2023-06-24T01:58:54;14.70;99.90
34646;DHT22;20857;47.808;12.482;2023-06-24T02:01:21;14.60;99.90
34646;DHT22;20857;47.808;12.482;2023-06-24T02:03:46;14.60;99.90
34646;DHT22;20857;47.808;12.482;2023-06-24T02:06:13;14.60;99.90
34646;DHT22;20857;47.808;12.482;2023-06-24T02:08:39;14.60;99.90
34646;DHT22;20857;47.808;12.482;2023-06-24T02:11:06;14.60;99.90
34646;DHT22;20857;47.808;12.482;2023-06-24T02:13:32;14.50;99.90
34646;DHT22;20857;47.808;12.482;2023-06-24T02:16:00;14.40;99.90
34646;DHT22;20857;47.808;12.482;2023-06-24T02:18:28;14.50;99.90
34646;DHT22;20857;47.808;12.482;2023-06-24T02:20:53;14.50;99.90
34646;DHT22;20857;47.808;12.482;2023-06-24T02:23:20;14.50;99.90
34646;DHT22;20857;47.808;12.482;2023-06-24T02:25:46;14.60;99.90
34646;DHT22;20857;47.808;12.482;2023-06-24T02:28:12;14.60;99.90
34646;DHT22;20857;47.808;12.482;2023-06-24T02:30:41;14.30;99.90
34646;DHT22;20857;47.808;12.482;2023-06-24T02:33:07;14.40;99.90
34646;DHT22;20857;47.808;12.482;2023-06-24T02:35:34;14.40;99.90
34646;DHT22;20857;47.808;12.482;2023-06-24T02:37:59;14.40;99.90
34646;DHT22;20857;47.808;12.482;2023-06-24T02:40:25;14.40;99.90
34646;DHT22;20857;47.808;12.482;2023-06-24T02:42:51;14.40;99.90
34646;DHT22;20857;47.808;12.482;2023-06-24T02:45:17;14.50;99.90
34646;DHT22;20857;47.808;12.482;2023-06-24T02:47:43;14.50;99.90
34646;DHT22;20857;47.808;12.482;2023-06-24T02:50:10;14.50;99.90
34646;DHT22;20857;47.808;12.482;2023-06-24T02:52:36;14.50;99.90
34646;DHT22;20857;47.808;12.482;2023-06-24T02:55:03;14.50;99.90
34646;DHT22;20857;47.808;12.482;2023-06-24T02:57:28;14.50;99.90
34646;DHT22;20857;47.808;12.482;2023-06-24T02:59:55;14.50;99.90
34646;DHT22;20857;47.808;12.482;2023-06-24T03:02:20;14.50;99.90
34646;DHT22;20857;47.808;12.482;2023-06-24T03:04:46;14.50;99.90
34646;DHT22;20857;47.808;12.482;2023-06-24T03:07:12;14.50;99.90
34646;DHT22;20857;47.808;12.482;2023-06-24T03:09:38;14.40;99.90
34646;DHT22;20857;47.808;12.482;2023-06-24T03:12:05;14.50;99.90
34646;DHT22;20857;47.808;12.482;2023-06-24T03:14:30;14.40;99.90
34646;DHT22;20857;47.808;12.482;2023-06-24T03:16:56;14.50;99.90
34646;DHT22;20857;47.808;12.482;2023-06-24T03:19:22;14.50;99.90
34646;DHT22;20857;47.808;12.482;2023-06-24T03:21:47;14.50;99.90
34646;DHT22;20857;47.808;12.482;2023-06-24T03:24:13;14.50;99.90
34646;DHT22;20857;47.808;12.482;2023-06-24T03:26:39;14.50;99.90
34646;DHT22;20857;47.808;12.482;2023-06-24T03:29:07;14.40;99.90
34646;DHT22;20857;47.808;12.482;2023-06-24T03:31:33;14.50;99.90
34646;DHT22;20857;47.808;12.482;2023-06-24T03:33:58;14.40;99.90
34646;DHT22;20857;47.808;12.482;2023-06-24T03:36:24;14.40;99.90
34646;DHT22;20857;47.808;12.482;2023-06-24T03:38:49;14.50;99.90
34646;DHT22;20857;47.808;12.482;2023-06-24T03:41:15;14.40;99.90
34646;DHT22;20857;47.808;12.482;2023-06-24T03:43:40;14.40;99.90
34646;DHT22;20857;47.808;12.482;2023-06-24T03:46:07;14.50;99.90
34646;DHT22;20857;47.808;12.482;2023-06-24T03:48:33;14.50;99.90
34646;DHT22;20857;47.808;12.482;2023-06-24T03:50:58;14.50;99.90
34646;DHT22;20857;47.808;12.482;2023-06-24T03:53:23;14.50;99.90
34646;DHT22;20857;47.808;12.482;2023-06-24T03:55:49;14.50;99.90
34646;DHT22;20857;47.808;12.482;2023-06-24T03:58:14;14.50;99.90
34646;DHT22;20857;47.808;12.482;2023-06-24T04:00:42;14.50;99.90
34646;DHT22;20857;47.808;12.482;2023-06-24T04:03:08;14.50;99.90
34646;DHT22;20857;47.808;12.482;2023-06-24T04:05:33;14.50;99.90
34646;DHT22;20857;47.808;12.482;2023-06-24T04:07:59;14.50;99.90
34646;DHT22;20857;47.808;12.482;2023-06-24T04:10:25;14.40;99.90
34646;DHT22;20857;47.808;12.482;2023-06-24T04:12:50;14.50;99.90
34646;DHT22;20857;47.808;12.482;2023-06-24T04:15:16;14.50;99.90
34646;DHT22;20857;47.808;12.482;2023-06-24T04:17:42;14.50;99.90
34646;DHT22;20857;47.808;12.482;2023-06-24T04:20:07;14.50;99.90
34646;DHT22;20857;47.808;12.482;2023-06-24T04:22:36;14.60;99.90
34646;DHT22;20857;47.808;12.482;2023-06-24T04:25:03;14.60;99.90
34646;DHT22;20857;47.808;12.482;2023-06-24T04:27:30;14.60;99.90
34646;DHT22;20857;47.808;12.482;2023-06-24T04:29:56;14.70;99.90
34646;DHT22;20857;47.808;12.482;2023-06-24T04:32:21;14.70;99.90
34646;DHT22;20857;47.808;12.482;2023-06-24T04:34:47;14.80;99.90
34646;DHT22;20857;47.808;12.482;2023-06-24T04:37:12;14.80;99.90
34646;DHT22;20857;47.808;12.482;2023-06-24T04:39:38;14.80;99.90
34646;DHT22;20857;47.808;12.482;2023-06-24T04:42:03;14.80;99.90
34646;DHT22;20857;47.808;12.482;2023-06-24T04:44:29;14.70;99.90
34646;DHT22;20857;47.808;12.482;2023-06-24T04:46:54;14.80;99.90
34646;DHT22;20857;47.808;12.482;2023-06-24T04:49:20;14.80;99.90
34646;DHT22;20857;47.808;12.482;2023-06-24T04:51:45;14.80;99.90
34646;DHT22;20857;47.808;12.482;2023-06-24T04:54:11;14.90;99.90
34646;DHT22;20857;47.808;12.482;2023-06-24T04:56:37;14.80;99.90
34646;DHT22;20857;47.808;12.482;2023-06-24T04:59:03;14.90;99.90
34646;DHT22;20857;47.808;12.482;2023-06-24T05:01:28;14.90;99.90
34646;DHT22;20857;47.808;12.482;2023-06-24T05:03:54;14.90;99.90
34646;DHT22;20857;47.808;12.482;2023-06-24T05:06:19;14.80;99.90
34646;DHT22;20857;47.808;12.482;2023-06-24T05:08:45;14.80;99.90
34646;DHT22;20857;47.808;12.482;2023-06-24T05:11:10;14.90;99.90
34646;DHT22;20857;47.808;12.482;2023-06-24T05:13:37;14.80;99.90
34646;DHT22;20857;47.808;12.482;2023-06-24T05:16:02;14.90;99.90
34646;DHT22;20857;47.808;12.482;2023-06-24T05:18:28;14.90;99.90
34646;DHT22;20857;47.808;12.482;2023-06-24T05:20:53;14.80;99.90
34646;DHT22;20857;47.808;12.482;2023-06-24T05:23:19;14.90;99.90
34646;DHT22;20857;47.808;12.482;2023-06-24T05:25:44;14.80;99.90
34646;DHT22;20857;47.808;12.482;2023-06-24T05:28:10;14.80;99.90
34646;DHT22;20857;47.808;12.482;2023-06-24T05:30:35;14.90;99.90
34646;DHT22;20857;47.808;12.482;2023-06-24T05:33:00;15.00;99.90
34646;DHT22;20857;47.808;12.482;2023-06-24T05:35:26;15.10;99.90
34646;DHT22;20857;47.808;12.482;2023-06-24T05:37:51;15.20;99.90
34646;DHT22;20857;47.808;12.482;2023-06-24T05:40:17;15.20;99.90
34646;DHT22;20857;47.808;12.482;2023-06-24T05:42:42;15.30;99.90
34646;DHT22;20857;47.808;12.482;2023-06-24T05:45:08;15.40;99.90
34646;DHT22;20857;47.808;12.482;2023-06-24T05:47:33;15.40;99.90
34646;DHT22;20857;47.808;12.482;2023-06-24T05:49:59;15.40;99.90
34646;DHT22;20857;47.808;12.482;2023-06-24T05:52:24;15.40;99.90
34646;DHT22;20857;47.808;12.482;2023-06-24T05:54:50;15.50;99.90
34646;DHT22;20857;47.808;12.482;2023-06-24T05:57:15;15.50;99.90
34646;DHT22;20857;47.808;12.482;2023-06-24T05:59:41;15.50;99.90
34646;DHT22;20857;47.808;12.482;2023-06-24T06:02:06;15.50;99.90
34646;DHT22;20857;47.808;12.482;2023-06-24T06:04:32;15.50;99.90
34646;DHT22;20857;47.808;12.482;2023-06-24T06:06:57;15.60;99.90
34646;DHT22;20857;47.808;12.482;2023-06-24T06:09:23;15.60;99.90
34646;DHT22;20857;47.808;12.482;2023-06-24T06:11:49;15.70;99.90
34646;DHT22;20857;47.808;12.482;2023-06-24T06:14:14;15.70;99.90
34646;DHT22;20857;47.808;12.482;2023-06-24T06:16:40;15.80;99.90
34646;DHT22;20857;47.808;12.482;2023-06-24T06:19:05;16.00;99.90
34646;DHT22;20857;47.808;12.482;2023-06-24T06:21:31;16.00;99.90
34646;DHT22;20857;47.808;12.482;2023-06-24T06:23:57;16.20;99.90
34646;DHT22;20857;47.808;12.482;2023-06-24T06:26:22;16.10;99.90
34646;DHT22;20857;47.808;12.482;2023-06-24T06:28:48;16.20;99.90
34646;DHT22;20857;47.808;12.482;2023-06-24T06:31:13;16.30;99.90
34646;DHT22;20857;47.808;12.482;2023-06-24T06:33:39;16.40;99.90
34646;DHT22;20857;47.808;12.482;2023-06-24T06:36:04;16.70;99.90
34646;DHT22;20857;47.808;12.482;2023-06-24T06:38:30;16.80;99.90
34646;DHT22;20857;47.808;12.482;2023-06-24T06:40:57;16.90;99.90
34646;DHT22;20857;47.808;12.482;2023-06-24T06:43:22;17.10;99.90
34646;DHT22;20857;47.808;12.482;2023-06-24T06:45:48;17.10;99.90
34646;DHT22;20857;47.808;12.482;2023-06-24T06:48:13;17.20;99.90
34646;DHT22;20857;47.808;12.482;2023-06-24T06:50:39;17.30;99.90
34646;DHT22;20857;47.808;12.482;2023-06-24T06:53:04;17.40;99.90
34646;DHT22;20857;47.808;12.482;2023-06-24T06:55:30;17.50;99.90
34646;DHT22;20857;47.808;12.482;2023-06-24T06:57:55;17.50;99.90
34646;DHT22;20857;47.808;12.482;2023-06-24T07:00:21;17.50;99.90
34646;DHT22;20857;47.808;12.482;2023-06-24T07:02:46;17.70;99.90
34646;DHT22;20857;47.808;12.482;2023-06-24T07:05:11;17.70;99.90
34646;DHT22;20857;47.808;12.482;2023-06-24T07:07:37;17.60;99.90
34646;DHT22;20857;47.808;12.482;2023-06-24T07:10:03;17.60;99.90
34646;DHT22;20857;47.808;12.482;2023-06-24T07:12:29;17.70;99.90
34646;DHT22;20857;47.808;12.482;2023-06-24T07:14:54;17.70;99.90
34646;DHT22;20857;47.808;12.482;2023-06-24T07:17:20;17.60;99.90
34646;DHT22;20857;47.808;12.482;2023-06-24T07:19:45;17.70;99.90
34646;DHT22;20857;47.808;12.482;2023-06-24T07:22:11;17.60;99.90
34646;DHT22;20857;47.808;12.482;2023-06-24T07:24:36;17.80;99.90
34646;DHT22;20857;47.808;12.482;2023-06-24T07:27:02;17.80;99.90
34646;DHT22;20857;47.808;12.482;2023-06-24T07:29:28;18.00;99.90
34646;DHT22;20857;47.808;12.482;2023-06-24T07:31:53;18.00;99.90
34646;DHT22;20857;47.808;12.482;2023-06-24T07:34:19;18.10;99.90
34646;DHT22;20857;47.808;12.482;2023-06-24T07:36:44;18.00;99.90
34646;DHT22;20857;47.808;12.482;2023-06-24T07:39:10;18.10;99.90
34646;DHT22;20857;47.808;12.482;2023-06-24T07:41:35;18.00;99.90
34646;DHT22;20857;47.808;12.482;2023-06-24T07:44:01;18.10;99.90
34646;DHT22;20857;47.808;12.482;2023-06-24T07:46:27;18.20;99.90
34646;DHT22;20857;47.808;12.482;2023-06-24T07:48:53;18.30;99.90
34646;DHT22;20857;47.808;12.482;2023-06-24T07:51:18;18.40;99.90
34646;DHT22;20857;47.808;12.482;2023-06-24T07:53:44;18.50;99.90
34646;DHT22;20857;47.808;12.482;2023-06-24T07:56:09;18.60;99.90
34646;DHT22;20857;47.808;12.482;2023-06-24T07:58:35;18.80;99.90
34646;DHT22;20857;47.808;12.482;2023-06-24T08:01:02;19.10;99.90
34646;DHT22;20857;47.808;12.482;2023-06-24T08:03:27;19.20;99.90
34646;DHT22;20857;47.808;12.482;2023-06-24T08:05:53;19.40;99.90
34646;DHT22;20857;47.808;12.482;2023-06-24T08:08:19;19.50;99.90
34646;DHT22;20857;47.808;12.482;2023-06-24T08:10:46;19.50;99.90
34646;DHT22;20857;47.808;12.482;2023-06-24T08:13:11;19.70;99.90
34646;DHT22;20857;47.808;12.482;2023-06-24T08:15:37;19.80;99.90
34646;DHT22;20857;47.808;12.482;2023-06-24T08:18:02;19.80;99.90
34646;DHT22;20857;47.808;12.482;2023-06-24T08:20:27;19.90;99.90
34646;DHT22;20857;47.808;12.482;2023-06-24T08:22:53;19.90;99.90
34646;DHT22;20857;47.808;12.482;2023-06-24T08:25:18;19.90;99.90
34646;DHT22;20857;47.808;12.482;2023-06-24T08:27:44;20.00;99.90
34646;DHT22;20857;47.808;12.482;2023-06-24T08:30:12;19.90;99.90
34646;DHT22;20857;47.808;12.482;2023-06-24T08:32:38;19.90;99.90
34646;DHT22;20857;47.808;12.482;2023-06-24T08:35:03;20.00;99.90
34646;DHT22;20857;47.808;12.482;2023-06-24T08:37:29;20.10;99.90
34646;DHT22;20857;47.808;12.482;2023-06-24T08:39:54;20.10;99.90
34646;DHT22;20857;47.808;12.482;2023-06-24T08:42:20;20.40;99.90
34646;DHT22;20857;47.808;12.482;2023-06-24T08:44:45;20.60;99.90
34646;DHT22;20857;47.808;12.482;2023-06-24T08:47:11;21.00;99.90
34646;DHT22;20857;47.808;12.482;2023-06-24T08:49:38;21.20;99.90
34646;DHT22;20857;47.808;12.482;2023-06-24T08:52:08;21.50;99.90
34646;DHT22;20857;47.808;12.482;2023-06-24T08:54:36;21.70;99.90
34646;DHT22;20857;47.808;12.482;2023-06-24T08:57:04;21.70;99.90
34646;DHT22;20857;47.808;12.482;2023-06-24T08:59:32;21.90;99.90
34646;DHT22;20857;47.808;12.482;2023-06-24T09:01:58;21.80;99.90
34646;DHT22;20857;47.808;12.482;2023-06-24T09:04:24;21.80;99.90
34646;DHT22;20857;47.808;12.482;2023-06-24T09:06:49;21.70;99.90
34646;DHT22;20857;47.808;12.482;2023-06-24T09:09:18;22.00;99.90
34646;DHT22;20857;47.808;12.482;2023-06-24T09:11:50;22.00;99.90
34646;DHT22;20857;47.808;12.482;2023-06-24T09:14:16;22.30;99.90
34646;DHT22;20857;47.808;12.482;2023-06-24T09:16:41;22.40;99.90
34646;DHT22;20857;47.808;12.482;2023-06-24T09:19:23;22.40;99.90
34646;DHT22;20857;47.808;12.482;2023-06-24T09:21:49;22.50;99.90
34646;DHT22;20857;47.808;12.482;2023-06-24T09:24:15;22.50;99.90
34646;DHT22;20857;47.808;12.482;2023-06-24T09:26:42;22.70;99.70
34646;DHT22;20857;47.808;12.482;2023-06-24T09:29:08;22.70;99.90
34646;DHT22;20857;47.808;12.482;2023-06-24T09:31:33;22.60;99.70
34646;DHT22;20857;47.808;12.482;2023-06-24T09:33:59;22.60;99.90
34646;DHT22;20857;47.808;12.482;2023-06-24T09:36:24;22.90;99.40
34646;DHT22;20857;47.808;12.482;2023-06-24T09:38:50;23.10;99.90
34646;DHT22;20857;47.808;12.482;2023-06-24T09:41:15;23.50;99.30
34646;DHT22;20857;47.808;12.482;2023-06-24T09:43:41;23.70;98.10
34646;DHT22;20857;47.808;12.482;2023-06-24T09:46:07;24.00;97.30
34646;DHT22;20857;47.808;12.482;2023-06-24T09:48:33;24.10;97.40
34646;DHT22;20857;47.808;12.482;2023-06-24T09:51:00;24.10;95.20
34646;DHT22;20857;47.808;12.482;2023-06-24T09:53:31;24.20;97.60
34646;DHT22;20857;47.808;12.482;2023-06-24T09:55:59;24.20;96.40
34646;DHT22;20857;47.808;12.482;2023-06-24T09:58:25;24.30;95.60
34646;DHT22;20857;47.808;12.482;2023-06-24T10:00:50;24.00;94.20
34646;DHT22;20857;47.808;12.482;2023-06-24T10:03:17;23.70;93.30
34646;DHT22;20857;47.808;12.482;2023-06-24T10:05:43;23.80;96.10
34646;DHT22;20857;47.808;12.482;2023-06-24T10:08:08;23.80;94.40
34646;DHT22;20857;47.808;12.482;2023-06-24T10:10:35;24.00;93.50
34646;DHT22;20857;47.808;12.482;2023-06-24T10:13:01;23.80;95.70
34646;DHT22;20857;47.808;12.482;2023-06-24T10:15:26;23.60;95.40
34646;DHT22;20857;47.808;12.482;2023-06-24T10:17:52;23.50;96.00
34646;DHT22;20857;47.808;12.482;2023-06-24T10:20:23;23.40;96.90
34646;DHT22;20857;47.808;12.482;2023-06-24T10:22:50;23.20;96.60
34646;DHT22;20857;47.808;12.482;2023-06-24T10:25:15;23.20;96.90
34646;DHT22;20857;47.808;12.482;2023-06-24T10:27:41;23.20;96.20
34646;DHT22;20857;47.808;12.482;2023-06-24T10:30:07;23.20;96.00
34646;DHT22;20857;47.808;12.482;2023-06-24T10:32:40;23.20;96.50
34646;DHT22;20857;47.808;12.482;2023-06-24T10:35:06;23.20;96.80
34646;DHT22;20857;47.808;12.482;2023-06-24T10:37:32;23.30;95.80
34646;DHT22;20857;47.808;12.482;2023-06-24T10:44:54;23.70;95.30
34646;DHT22;20857;47.808;12.482;2023-06-24T10:47:21;24.10;95.20
34646;DHT22;20857;47.808;12.482;2023-06-24T10:49:46;24.30;96.40
34646;DHT22;20857;47.808;12.482;2023-06-24T10:52:12;24.40;94.40
34646;DHT22;20857;47.808;12.482;2023-06-24T10:54:38;24.50;94.90
34646;DHT22;20857;47.808;12.482;2023-06-24T10:57:04;24.60;93.90
34646;DHT22;20857;47.808;12.482;2023-06-24T10:59:39;25.10;93.30
34646;DHT22;20857;47.808;12.482;2023-06-24T11:02:05;25.50;94.10
34646;DHT22;20857;47.808;12.482;2023-06-24T11:04:30;25.80;93.30
34646;DHT22;20857;47.808;12.482;2023-06-24T11:06:59;25.80;94.10
34646;DHT22;20857;47.808;12.482;2023-06-24T11:09:25;26.10;92.70
34646;DHT22;20857;47.808;12.482;2023-06-24T11:11:51;26.10;94.00
34646;DHT22;20857;47.808;12.482;2023-06-24T11:14:17;26.10;93.50
34646;DHT22;20857;47.808;12.482;2023-06-24T11:16:42;25.80;93.80
34646;DHT22;20857;47.808;12.482;2023-06-24T11:19:08;25.90;92.20
34646;DHT22;20857;47.808;12.482;2023-06-24T11:21:33;25.60;92.70
34646;DHT22;20857;47.808;12.482;2023-06-24T11:24:02;24.70;94.40
34646;DHT22;20857;47.808;12.482;2023-06-24T11:26:28;24.10;92.70
34646;DHT22;20857;47.808;12.482;2023-06-24T11:28:53;23.90;92.40
34646;DHT22;20857;47.808;12.482;2023-06-24T11:31:19;23.10;93.10
34646;DHT22;20857;47.808;12.482;2023-06-24T11:33:49;22.50;92.70
34646;DHT22;20857;47.808;12.482;2023-06-24T11:36:18;22.40;95.90
34646;DHT22;20857;47.808;12.482;2023-06-24T11:38:45;23.10;93.80
34646;DHT22;20857;47.808;12.482;2023-06-24T11:41:11;23.90;92.10
34646;DHT22;20857;47.808;12.482;2023-06-24T11:43:36;24.40;93.20
34646;DHT22;20857;47.808;12.482;2023-06-24T11:46:02;24.40;92.10
34646;DHT22;20857;47.808;12.482;2023-06-24T11:48:28;24.00;92.50
34646;DHT22;20857;47.808;12.482;2023-06-24T11:50:53;24.20;93.10
34646;DHT22;20857;47.808;12.482;2023-06-24T11:53:29;24.60;94.60
34646;DHT22;20857;47.808;12.482;2023-06-24T11:55:56;25.00;93.10
34646;DHT22;20857;47.808;12.482;2023-06-24T11:58:21;25.40;92.50
34646;DHT22;20857;47.808;12.482;2023-06-24T12:00:48;25.50;92.40
34646;DHT22;20857;47.808;12.482;2023-06-24T12:03:13;25.70;92.70
34646;DHT22;20857;47.808;12.482;2023-06-24T12:05:39;25.40;93.10
34646;DHT22;20857;47.808;12.482;2023-06-24T12:08:10;25.00;92.30
34646;DHT22;20857;47.808;12.482;2023-06-24T12:10:37;24.60;92.80
34646;DHT22;20857;47.808;12.482;2023-06-24T12:13:03;24.90;93.40
34646;DHT22;20857;47.808;12.482;2023-06-24T12:15:29;25.40;92.60
34646;DHT22;20857;47.808;12.482;2023-06-24T12:17:54;25.80;94.00
34646;DHT22;20857;47.808;12.482;2023-06-24T12:20:20;26.50;90.60
34646;DHT22;20857;47.808;12.482;2023-06-24T12:22:46;26.70;90.20
34646;DHT22;20857;47.808;12.482;2023-06-24T12:25:12;27.00;91.80
34646;DHT22;20857;47.808;12.482;2023-06-24T12:27:38;27.60;89.60
34646;DHT22;20857;47.808;12.482;2023-06-24T12:30:05;28.00;90.40
34646;DHT22;20857;47.808;12.482;2023-06-24T12:32:30;28.30;88.60
34646;DHT22;20857;47.808;12.482;2023-06-24T12:34:56;29.10;85.70
34646;DHT22;20857;47.808;12.482;2023-06-24T12:37:21;28.80;85.30
34646;DHT22;20857;47.808;12.482;2023-06-24T12:39:47;29.10;87.50
34646;DHT22;20857;47.808;12.482;2023-06-24T12:42:12;29.50;85.30
34646;DHT22;20857;47.808;12.482;2023-06-24T12:44:38;29.70;84.10
34646;DHT22;20857;47.808;12.482;2023-06-24T12:47:03;29.40;87.70
34646;DHT22;20857;47.808;12.482;2023-06-24T12:49:29;29.10;85.10
34646;DHT22;20857;47.808;12.482;2023-06-24T12:51:54;29.20;84.60
34646;DHT22;20857;47.808;12.482;2023-06-24T12:54:20;29.40;86.00
34646;DHT22;20857;47.808;12.482;2023-06-24T12:56:45;29.90;86.00
34646;DHT22;20857;47.808;12.482;2023-06-24T12:59:11;30.30;81.00
34646;DHT22;20857;47.808;12.482;2023-06-24T13:01:36;31.10;83.90
34646;DHT22;20857;47.808;12.482;2023-06-24T13:04:02;32.00;82.10
34646;DHT22;20857;47.808;12.482;2023-06-24T13:06:27;32.90;77.50
34646;DHT22;20857;47.808;12.482;2023-06-24T13:08:53;32.30;80.40
34646;DHT22;20857;47.808;12.482;2023-06-24T13:11:19;32.80;74.40
34646;DHT22;20857;47.808;12.482;2023-06-24T13:13:44;32.80;76.30
34646;DHT22;20857;47.808;12.482;2023-06-24T13:16:10;33.00;74.60
34646;DHT22;20857;47.808;12.482;2023-06-24T13:18:35;33.00;76.50
34646;DHT22;20857;47.808;12.482;2023-06-24T13:21:01;32.70;76.50
34646;DHT22;20857;47.808;12.482;2023-06-24T13:23:26;32.30;71.90
34646;DHT22;20857;47.808;12.482;2023-06-24T13:25:51;32.40;74.10
34646;DHT22;20857;47.808;12.482;2023-06-24T13:28:17;32.30;77.50
34646;DHT22;20857;47.808;12.482;2023-06-24T13:30:42;33.20;76.20
34646;DHT22;20857;47.808;12.482;2023-06-24T13:33:08;33.20;72.50
34646;DHT22;20857;47.808;12.482;2023-06-24T13:35:33;33.20;72.50
34646;DHT22;20857;47.808;12.482;2023-06-24T13:37:59;33.00;70.20
34646;DHT22;20857;47.808;12.482;2023-06-24T13:40:24;32.80;71.10
34646;DHT22;20857;47.808;12.482;2023-06-24T13:42:50;31.10;69.90
34646;DHT22;20857;47.808;12.482;2023-06-24T13:45:15;30.40;68.50
34646;DHT22;20857;47.808;12.482;2023-06-24T13:47:41;31.00;69.90
34646;DHT22;20857;47.808;12.482;2023-06-24T13:50:06;31.50;71.30
34646;DHT22;20857;47.808;12.482;2023-06-24T13:52:33;30.80;73.10
34646;DHT22;20857;47.808;12.482;2023-06-24T13:54:58;30.90;66.70
34646;DHT22;20857;47.808;12.482;2023-06-24T13:57:23;31.70;69.30
34646;DHT22;20857;47.808;12.482;2023-06-24T13:59:49;32.60;68.00
34646;DHT22;20857;47.808;12.482;2023-06-24T14:02:15;32.40;69.80
34646;DHT22;20857;47.808;12.482;2023-06-24T14:04:40;32.50;69.40
34646;DHT22;20857;47.808;12.482;2023-06-24T14:07:06;33.30;71.80
34646;DHT22;20857;47.808;12.482;2023-06-24T14:09:31;34.30;68.30
34646;DHT22;20857;47.808;12.482;2023-06-24T14:11:57;34.40;63.30
34646;DHT22;20857;47.808;12.482;2023-06-24T14:14:22;33.80;66.30
34646;DHT22;20857;47.808;12.482;2023-06-24T14:16:48;32.90;67.00
34646;DHT22;20857;47.808;12.482;2023-06-24T14:19:14;32.90;67.20
34646;DHT22;20857;47.808;12.482;2023-06-24T14:21:39;33.10;67.00
34646;DHT22;20857;47.808;12.482;2023-06-24T14:24:05;32.80;69.00
34646;DHT22;20857;47.808;12.482;2023-06-24T14:26:32;32.80;65.30
34646;DHT22;20857;47.808;12.482;2023-06-24T14:28:58;32.10;66.20
34646;DHT22;20857;47.808;12.482;2023-06-24T14:31:24;32.00;64.90
34646;DHT22;20857;47.808;12.482;2023-06-24T14:33:49;32.50;63.40
34646;DHT22;20857;47.808;12.482;2023-06-24T14:36:14;32.60;69.30
34646;DHT22;20857;47.808;12.482;2023-06-24T14:38:40;32.10;66.60
34646;DHT22;20857;47.808;12.482;2023-06-24T14:41:08;32.00;65.00
34646;DHT22;20857;47.808;12.482;2023-06-24T14:43:33;32.40;65.40
34646;DHT22;20857;47.808;12.482;2023-06-24T14:45:59;33.00;64.60
34646;DHT22;20857;47.808;12.482;2023-06-24T14:48:24;33.30;65.70
34646;DHT22;20857;47.808;12.482;2023-06-24T14:50:50;32.00;63.00
34646;DHT22;20857;47.808;12.482;2023-06-24T14:53:16;30.80;67.00
34646;DHT22;20857;47.808;12.482;2023-06-24T14:55:41;31.30;66.50
34646;DHT22;20857;47.808;12.482;2023-06-24T14:58:07;31.30;64.10
34646;DHT22;20857;47.808;12.482;2023-06-24T15:00:32;30.70;63.50
34646;DHT22;20857;47.808;12.482;2023-06-24T15:02:57;31.20;66.70
34646;DHT22;20857;47.808;12.482;2023-06-24T15:05:23;32.20;67.10
34646;DHT22;20857;47.808;12.482;2023-06-24T15:07:48;32.20;63.30
34646;DHT22;20857;47.808;12.482;2023-06-24T15:10:14;32.30;63.10
34646;DHT22;20857;47.808;12.482;2023-06-24T15:12:39;32.60;65.60
34646;DHT22;20857;47.808;12.482;2023-06-24T15:15:05;33.40;65.10
34646;DHT22;20857;47.808;12.482;2023-06-24T15:17:31;33.80;66.30
34646;DHT22;20857;47.808;12.482;2023-06-24T15:19:59;32.80;62.00